Terminal Aerodrome Forecast
Issued by NWS

Home | Current Version | Previous Version | Text Only | Print | Product List | Glossary On
Versions: 1 2 3 4 5 6 7 8 9 10 11 12 13 14 15 16 17 18 19 20 21 22 23 24 25 26 27 28 29 30
000
FTAK31 PANC 200528
TAFAIL
TAF
PAIL 200528Z 2006/2106 VRB05KT P6SM SCT050
     FM201500 04003KT 6SM -RA OVC025
     FM201900 03003KT 4SM -RA BR OVC015
     FM202200 03011KT 6SM -RA OVC025
     FM210400 33007KT P6SM -RA OVC035=

USA.gov is the U.S. government's official web portal to all federal, state and local government web resources and services.